createdAt,value
2018-06-25T00:00:49.943Z,16.75
2018-06-25T00:05:52.999Z,16.73
2018-06-25T00:10:56.018Z,16.67
2018-06-25T00:15:59.079Z,16.73
2018-06-25T00:21:02.138Z,16.71
2018-06-25T00:26:05.222Z,16.66
2018-06-25T00:31:08.272Z,16.69
2018-06-25T00:36:11.346Z,16.71
2018-06-25T00:41:14.421Z,16.77
2018-06-25T00:46:17.489Z,16.74
2018-06-25T00:51:20.530Z,16.77
2018-06-25T00:56:23.778Z,16.78
2018-06-25T01:01:26.858Z,16.70
2018-06-25T01:06:29.957Z,16.68
2018-06-25T01:11:33.057Z,16.71
2018-06-25T01:16:42.863Z,16.75
2018-06-25T01:21:46.078Z,16.77
2018-06-25T01:26:49.126Z,16.72
2018-06-25T01:31:53.086Z,16.73
2018-06-25T01:36:56.142Z,16.74
2018-06-25T01:41:59.334Z,16.75
2018-06-25T01:47:02.404Z,16.81
2018-06-25T01:52:05.629Z,16.83
2018-06-25T01:57:08.710Z,16.83
2018-06-25T02:02:11.921Z,16.83
2018-06-25T02:07:14.965Z,16.79
2018-06-25T02:12:18.010Z,16.85
2018-06-25T02:17:21.090Z,16.23
2018-06-25T02:22:24.103Z,16.89
2018-06-25T02:27:27.133Z,16.89
2018-06-25T02:32:30.186Z,16.89
2018-06-25T02:37:33.269Z,16.94
2018-06-25T02:42:36.360Z,16.91
2018-06-25T02:47:39.534Z,16.94
2018-06-25T02:52:42.602Z,16.98
2018-06-25T02:57:45.669Z,16.96
2018-06-25T03:02:48.714Z,17.02
2018-06-25T03:07:51.743Z,17.07
2018-06-25T03:12:56.465Z,17.07
2018-06-25T03:18:00.205Z,17.07
2018-06-25T03:23:04.014Z,17.10
2018-06-25T03:28:07.145Z,17.10
2018-06-25T03:33:10.201Z,17.15
2018-06-25T03:38:13.253Z,17.21
2018-06-25T03:43:16.287Z,17.25
2018-06-25T03:48:19.369Z,17.33
2018-06-25T03:53:22.411Z,17.41
2018-06-25T03:58:25.474Z,17.40
2018-06-25T04:03:28.743Z,17.46
2018-06-25T04:08:31.797Z,17.50
2018-06-25T04:13:34.876Z,17.57
2018-06-25T04:18:37.951Z,17.58
2018-06-25T04:23:41.010Z,17.57
2018-06-25T04:28:44.026Z,17.61
2018-06-25T04:33:47.376Z,17.68
2018-06-25T04:38:50.439Z,17.74
2018-06-25T04:43:53.483Z,17.81
2018-06-25T04:48:56.734Z,17.80
2018-06-25T04:53:59.825Z,17.80
2018-06-25T04:59:02.994Z,17.86
2018-06-25T05:04:06.038Z,17.92
2018-06-25T05:09:09.806Z,17.98
2018-06-25T05:14:12.834Z,18.05
2018-06-25T05:19:15.914Z,18.21
2018-06-25T05:24:18.908Z,18.47
2018-06-25T05:29:21.930Z,18.62
2018-06-25T05:34:25.050Z,18.68
2018-06-25T05:39:28.091Z,18.81
2018-06-25T05:44:31.131Z,18.91
2018-06-25T05:49:34.200Z,19.03
2018-06-25T05:54:37.269Z,19.00
2018-06-25T05:59:40.496Z,18.91
2018-06-25T06:04:43.522Z,18.92
2018-06-25T06:09:46.574Z,19.00
2018-06-25T06:14:49.642Z,18.92
2018-06-25T06:19:52.767Z,18.73
2018-06-25T06:24:55.826Z,18.65
2018-06-25T06:29:59.247Z,18.61
2018-06-25T06:35:02.410Z,18.73
2018-06-25T06:40:05.549Z,18.70
2018-06-25T06:45:08.662Z,18.65
2018-06-25T06:50:11.726Z,18.81
2018-06-25T06:55:14.814Z,18.83
2018-06-25T07:00:17.888Z,19.00
2018-06-25T07:05:21.255Z,19.14
2018-06-25T07:10:24.438Z,19.16
2018-06-25T07:15:27.453Z,19.27
2018-06-25T07:20:31.302Z,19.49
2018-06-25T07:25:34.415Z,19.91
2018-06-25T07:30:37.561Z,20.30
2018-06-25T07:35:40.650Z,20.65
2018-06-25T07:40:43.715Z,20.48
2018-06-25T07:45:46.791Z,20.03
2018-06-25T07:50:49.846Z,19.90
2018-06-25T07:55:53.051Z,19.79
2018-06-25T08:00:56.222Z,19.62
2018-06-25T08:05:59.330Z,19.68
2018-06-25T08:11:02.619Z,20.06
2018-06-25T08:16:05.790Z,20.27
2018-06-25T08:21:08.847Z,20.12
2018-06-25T08:26:11.914Z,20.16
2018-06-25T08:31:15.007Z,20.56
2018-06-25T08:36:18.200Z,20.80
2018-06-25T08:41:21.323Z,20.72
2018-06-25T08:46:24.382Z,20.70
2018-06-25T08:51:27.483Z,21.21
2018-06-25T08:56:30.810Z,22.07
2018-06-25T09:01:34.397Z,21.91
2018-06-25T09:06:37.534Z,21.57
2018-06-25T09:11:40.921Z,21.95
2018-06-25T09:16:44.040Z,22.13
2018-06-25T09:21:47.162Z,22.63
2018-06-25T09:26:50.187Z,22.81
2018-06-25T09:31:53.221Z,22.52
2018-06-25T09:36:56.347Z,22.64
2018-06-25T09:41:59.398Z,22.75
2018-06-25T09:47:02.518Z,23.08
2018-06-25T09:52:05.716Z,23.41
2018-06-25T09:57:08.792Z,23.84
2018-06-25T10:02:11.936Z,23.62
2018-06-25T10:07:15.237Z,23.81
2018-06-25T10:12:18.325Z,23.57
2018-06-25T10:17:21.465Z,23.96
2018-06-25T10:22:24.522Z,24.73
2018-06-25T10:27:27.549Z,25.51
2018-06-25T10:32:30.856Z,25.89
2018-06-25T10:37:33.994Z,25.53
2018-06-25T10:42:37.279Z,25.54
2018-06-25T10:47:40.205Z,24.78
2018-06-25T10:52:43.271Z,24.11
2018-06-25T10:57:46.288Z,24.66
2018-06-25T11:02:49.427Z,24.59
2018-06-25T11:07:52.448Z,24.68
2018-06-25T11:12:55.937Z,25.02
2018-06-25T11:17:59.022Z,24.55
2018-06-25T11:23:02.170Z,23.94
2018-06-25T11:28:05.637Z,23.42
2018-06-25T11:33:08.706Z,23.81
2018-06-25T11:38:11.771Z,24.52
2018-06-25T11:43:14.821Z,24.81
2018-06-25T11:48:17.966Z,24.14
2018-06-25T11:53:21.011Z,24.51
2018-06-25T11:58:24.074Z,25.12
2018-06-25T12:03:27.167Z,24.99
2018-06-25T12:08:30.246Z,25.25
2018-06-25T12:13:33.304Z,24.69
2018-06-25T12:18:36.396Z,24.47
2018-06-25T12:23:39.455Z,24.72
2018-06-25T12:28:42.514Z,24.63
2018-06-25T12:33:45.521Z,24.25
2018-06-25T12:38:48.563Z,24.08
2018-06-25T12:43:51.598Z,24.35
2018-06-25T12:48:54.669Z,24.95
2018-06-25T12:53:57.733Z,25.04
2018-06-25T12:59:00.821Z,24.79
2018-06-25T13:04:04.018Z,25.04
2018-06-25T13:09:11.037Z,25.03
2018-06-25T13:14:14.141Z,25.22
2018-06-25T13:19:17.214Z,26.04
2018-06-25T13:24:20.229Z,26.70
2018-06-25T13:29:23.225Z,26.60
2018-06-25T13:34:26.265Z,26.67
2018-06-25T13:39:29.537Z,26.52
2018-06-25T13:44:32.765Z,26.56
2018-06-25T13:49:35.786Z,26.60
2018-06-25T13:54:41.273Z,26.84
2018-06-25T13:59:44.378Z,27.26
2018-06-25T14:04:47.422Z,26.73
2018-06-25T14:09:50.482Z,26.84
2018-06-25T14:14:53.581Z,27.08
2018-06-25T14:19:56.650Z,26.84
2018-06-25T14:25:00.770Z,26.98
2018-06-25T14:30:09.587Z,27.13
2018-06-25T14:35:15.115Z,26.93
2018-06-25T14:40:18.419Z,26.39
2018-06-25T14:45:21.638Z,26.14
2018-06-25T14:50:31.953Z,26.01
2018-06-25T14:55:35.202Z,25.54
2018-06-25T15:00:38.214Z,25.46
2018-06-25T15:05:41.215Z,25.57
2018-06-25T15:10:44.218Z,25.81
2018-06-25T15:15:47.249Z,25.69
2018-06-25T15:20:50.284Z,25.53
2018-06-25T15:25:53.399Z,25.76
2018-06-25T15:30:56.433Z,26.31
2018-06-25T15:35:59.477Z,26.36
2018-06-25T15:41:02.711Z,25.84
2018-06-25T15:46:05.841Z,26.09
2018-06-25T15:51:09.008Z,26.52
2018-06-25T15:56:12.076Z,26.68
2018-06-25T16:01:15.197Z,26.26
2018-06-25T16:06:18.279Z,26.17
2018-06-25T16:11:21.502Z,26.47
2018-06-25T16:16:24.561Z,26.67
2018-06-25T16:21:27.610Z,26.47
2018-06-25T16:26:30.918Z,26.75
2018-06-25T16:31:34.221Z,26.59
2018-06-25T16:36:37.375Z,26.50
2018-06-25T16:41:40.772Z,26.42
2018-06-25T16:46:43.878Z,26.39
2018-06-25T16:51:46.894Z,26.06
2018-06-25T16:56:49.941Z,25.64
2018-06-25T17:01:52.973Z,25.77
2018-06-25T17:06:56.060Z,25.67
2018-06-25T17:11:59.094Z,25.15
2018-06-25T17:17:02.297Z,24.84
2018-06-25T17:22:05.486Z,24.91
2018-06-25T17:27:08.474Z,24.86
2018-06-25T17:32:11.510Z,24.73
2018-06-25T17:37:14.690Z,24.88
2018-06-25T17:42:17.938Z,24.78
2018-06-25T17:47:20.944Z,24.48
2018-06-25T17:52:23.991Z,24.14
2018-06-25T17:57:27.498Z,23.88
2018-06-25T18:02:30.584Z,23.57
2018-06-25T18:07:33.638Z,23.38
2018-06-25T18:12:36.691Z,23.24
2018-06-25T18:17:39.698Z,23.07
2018-06-25T18:22:42.834Z,22.76
2018-06-25T18:27:45.913Z,22.46
2018-06-25T18:32:48.942Z,22.51
2018-06-25T18:37:51.986Z,22.37
2018-06-25T18:42:55.034Z,22.45
2018-06-25T18:47:58.122Z,22.27
2018-06-25T18:53:01.395Z,22.08
2018-06-25T18:58:04.714Z,21.94
2018-06-25T19:03:07.764Z,21.72
2018-06-25T19:08:10.896Z,21.32
2018-06-25T19:13:14.176Z,20.94
2018-06-25T19:18:17.753Z,20.88
2018-06-25T19:23:20.778Z,20.69
2018-06-25T19:28:23.970Z,20.67
2018-06-25T19:33:27.071Z,20.48
2018-06-25T19:38:30.246Z,20.31
2018-06-25T19:43:33.266Z,20.30
2018-06-25T19:48:36.476Z,20.00
2018-06-25T19:53:39.529Z,19.88
2018-06-25T19:58:42.563Z,19.86
2018-06-25T20:03:45.626Z,19.78
2018-06-25T20:08:48.756Z,19.73
2018-06-25T20:13:51.821Z,19.55
2018-06-25T20:18:55.128Z,19.45
2018-06-25T20:23:58.194Z,19.30
2018-06-25T20:29:01.352Z,19.25
2018-06-25T20:34:04.572Z,19.22
2018-06-25T20:39:10.014Z,19.16
2018-06-25T20:44:13.180Z,19.39
2018-06-25T20:49:17.362Z,19.40
2018-06-25T20:54:20.383Z,19.28
2018-06-25T20:59:23.421Z,19.43
2018-06-25T21:04:26.493Z,19.40
2018-06-25T21:09:29.626Z,19.32
2018-06-25T21:14:32.725Z,19.18
2018-06-25T21:19:35.789Z,19.17
2018-06-25T21:24:38.813Z,19.05
2018-06-25T21:29:41.872Z,19.19
2018-06-25T21:34:44.909Z,19.07
2018-06-25T21:39:47.958Z,19.12
2018-06-25T21:44:50.987Z,19.01
2018-06-25T21:49:54.098Z,18.98
2018-06-25T21:54:57.134Z,19.09
2018-06-25T22:00:00.173Z,19.10
2018-06-25T22:05:03.242Z,19.01
2018-06-25T22:10:07.115Z,19.05
2018-06-25T22:15:10.230Z,18.97
2018-06-25T22:20:13.253Z,18.79
2018-06-25T22:25:16.277Z,18.79
2018-06-25T22:30:19.345Z,18.65
2018-06-25T22:35:22.667Z,18.66
2018-06-25T22:40:25.689Z,18.60
2018-06-25T22:45:28.708Z,18.63
2018-06-25T22:50:31.735Z,18.34
2018-06-25T22:55:35.921Z,18.03
2018-06-25T23:00:38.941Z,17.88
2018-06-25T23:05:41.990Z,17.90
2018-06-25T23:10:45.000Z,17.96
2018-06-25T23:15:48.083Z,18.10
2018-06-25T23:20:51.098Z,18.14
2018-06-25T23:25:54.155Z,18.19
2018-06-25T23:30:57.168Z,18.26
2018-06-25T23:36:00.210Z,18.36
2018-06-25T23:41:03.254Z,18.54
2018-06-25T23:46:06.380Z,18.23
2018-06-25T23:51:09.434Z,18.17
2018-06-25T23:56:12.521Z,18.19
